sensor_id;sensor_type;location;lat;lon;timestamp;temperature;humidity
33067;DHT22;19428;49.024;8.366;2022-09-03T00:00:16;19.30;99.90
33067;DHT22;19428;49.024;8.366;2022-09-03T00:03:02;19.20;99.90
33067;DHT22;19428;49.024;8.366;2022-09-03T00:05:45;19.00;99.90
33067;DHT22;19428;49.024;8.366;2022-09-03T00:08:36;19.10;99.90
33067;DHT22;19428;49.024;8.366;2022-09-03T00:11:18;19.10;99.90
33067;DHT22;19428;49.024;8.366;2022-09-03T00:14:09;19.10;99.90
33067;DHT22;19428;49.024;8.366;2022-09-03T00:19:23;19.20;99.90
33067;DHT22;19428;49.024;8.366;2022-09-03T00:21:55;19.20;99.90
33067;DHT22;19428;49.024;8.366;2022-09-03T00:24:26;19.10;99.90
33067;DHT22;19428;49.024;8.366;2022-09-03T00:26:59;19.20;99.90
33067;DHT22;19428;49.024;8.366;2022-09-03T00:29:36;19.10;99.90
33067;DHT22;19428;49.024;8.366;2022-09-03T00:32:10;18.90;99.90
33067;DHT22;19428;49.024;8.366;2022-09-03T00:34:40;18.90;99.90
33067;DHT22;19428;49.024;8.366;2022-09-03T00:37:08;18.80;99.90
33067;DHT22;19428;49.024;8.366;2022-09-03T00:39:35;18.80;99.90
33067;DHT22;19428;49.024;8.366;2022-09-03T00:56:35;18.80;99.90
33067;DHT22;19428;49.024;8.366;2022-09-03T01:09:57;18.40;99.90
33067;DHT22;19428;49.024;8.366;2022-09-03T01:15:29;18.30;99.90
33067;DHT22;19428;49.024;8.366;2022-09-03T01:26:54;18.20;99.90
33067;DHT22;19428;49.024;8.366;2022-09-03T01:29:35;18.20;99.90
33067;DHT22;19428;49.024;8.366;2022-09-03T01:35:22;18.10;99.90
33067;DHT22;19428;49.024;8.366;2022-09-03T01:38:08;18.00;99.90
33067;DHT22;19428;49.024;8.366;2022-09-03T01:45:57;18.00;99.90
33067;DHT22;19428;49.024;8.366;2022-09-03T01:48:45;18.00;99.90
33067;DHT22;19428;49.024;8.366;2022-09-03T01:51:22;18.00;99.90
33067;DHT22;19428;49.024;8.366;2022-09-03T01:54:18;18.10;99.90
33067;DHT22;19428;49.024;8.366;2022-09-03T02:00:07;18.10;99.90
33067;DHT22;19428;49.024;8.366;2022-09-03T02:02:35;18.10;99.90
33067;DHT22;19428;49.024;8.366;2022-09-03T02:07:35;18.60;99.90
33067;DHT22;19428;49.024;8.366;2022-09-03T02:10:04;18.70;99.90
33067;DHT22;19428;49.024;8.366;2022-09-03T02:12:32;19.00;99.90
33067;DHT22;19428;49.024;8.366;2022-09-03T02:15:09;19.00;99.90
33067;DHT22;19428;49.024;8.366;2022-09-03T02:17:36;18.90;99.90
33067;DHT22;19428;49.024;8.366;2022-09-03T02:20:08;18.90;99.90
33067;DHT22;19428;49.024;8.366;2022-09-03T02:22:37;19.00;99.90
33067;DHT22;19428;49.024;8.366;2022-09-03T02:25:04;19.00;99.90
33067;DHT22;19428;49.024;8.366;2022-09-03T02:27:30;19.00;99.90
33067;DHT22;19428;49.024;8.366;2022-09-03T02:29:57;19.00;99.90
33067;DHT22;19428;49.024;8.366;2022-09-03T02:32:23;18.80;99.90
33067;DHT22;19428;49.024;8.366;2022-09-03T02:34:49;18.70;99.90
33067;DHT22;19428;49.024;8.366;2022-09-03T02:37:16;18.70;99.90
33067;DHT22;19428;49.024;8.366;2022-09-03T02:39:42;18.70;99.90
33067;DHT22;19428;49.024;8.366;2022-09-03T02:42:09;18.60;99.90
33067;DHT22;19428;49.024;8.366;2022-09-03T02:44:52;18.60;99.90
33067;DHT22;19428;49.024;8.366;2022-09-03T02:47:18;18.80;99.90
33067;DHT22;19428;49.024;8.366;2022-09-03T02:49:47;18.70;99.90
33067;DHT22;19428;49.024;8.366;2022-09-03T02:52:12;18.90;99.90
33067;DHT22;19428;49.024;8.366;2022-09-03T02:54:39;18.70;99.90
33067;DHT22;19428;49.024;8.366;2022-09-03T02:57:06;18.40;99.90
33067;DHT22;19428;49.024;8.366;2022-09-03T02:59:32;18.30;99.90
33067;DHT22;19428;49.024;8.366;2022-09-03T03:01:58;18.20;99.90
33067;DHT22;19428;49.024;8.366;2022-09-03T03:04:23;18.30;99.90
33067;DHT22;19428;49.024;8.366;2022-09-03T03:06:49;18.40;99.90
33067;DHT22;19428;49.024;8.366;2022-09-03T03:09:17;18.40;99.90
33067;DHT22;19428;49.024;8.366;2022-09-03T03:11:43;18.70;99.90
33067;DHT22;19428;49.024;8.366;2022-09-03T03:14:09;18.60;99.90
33067;DHT22;19428;49.024;8.366;2022-09-03T03:16:34;18.80;99.90
33067;DHT22;19428;49.024;8.366;2022-09-03T03:19:00;18.80;99.90
33067;DHT22;19428;49.024;8.366;2022-09-03T03:21:26;18.90;99.90
33067;DHT22;19428;49.024;8.366;2022-09-03T03:23:52;18.80;99.90
33067;DHT22;19428;49.024;8.366;2022-09-03T03:26:19;18.70;99.90
33067;DHT22;19428;49.024;8.366;2022-09-03T03:28:49;18.70;99.90
33067;DHT22;19428;49.024;8.366;2022-09-03T03:31:21;18.80;99.90
33067;DHT22;19428;49.024;8.366;2022-09-03T03:33:54;18.70;99.90
33067;DHT22;19428;49.024;8.366;2022-09-03T03:36:22;18.50;99.90
33067;DHT22;19428;49.024;8.366;2022-09-03T03:38:48;18.40;99.90
33067;DHT22;19428;49.024;8.366;2022-09-03T03:41:19;18.50;99.90
33067;DHT22;19428;49.024;8.366;2022-09-03T03:43:47;18.60;99.90
33067;DHT22;19428;49.024;8.366;2022-09-03T03:46:20;18.70;99.90
33067;DHT22;19428;49.024;8.366;2022-09-03T03:48:52;18.50;99.90
33067;DHT22;19428;49.024;8.366;2022-09-03T03:51:21;18.50;99.90
33067;DHT22;19428;49.024;8.366;2022-09-03T03:53:47;18.30;99.90
33067;DHT22;19428;49.024;8.366;2022-09-03T03:56:14;18.40;99.90
33067;DHT22;19428;49.024;8.366;2022-09-03T03:58:41;18.50;99.90
33067;DHT22;19428;49.024;8.366;2022-09-03T04:01:09;18.60;99.90
33067;DHT22;19428;49.024;8.366;2022-09-03T04:03:36;18.30;99.90
33067;DHT22;19428;49.024;8.366;2022-09-03T04:06:03;18.30;99.90
33067;DHT22;19428;49.024;8.366;2022-09-03T04:08:32;18.20;99.90
33067;DHT22;19428;49.024;8.366;2022-09-03T04:10:59;18.20;99.90
33067;DHT22;19428;49.024;8.366;2022-09-03T04:13:31;18.30;99.90
33067;DHT22;19428;49.024;8.366;2022-09-03T04:16:12;18.30;99.90
33067;DHT22;19428;49.024;8.366;2022-09-03T04:18:39;18.30;99.90
33067;DHT22;19428;49.024;8.366;2022-09-03T04:21:13;18.20;99.90
33067;DHT22;19428;49.024;8.366;2022-09-03T04:23:41;18.40;99.90
33067;DHT22;19428;49.024;8.366;2022-09-03T04:26:09;18.30;99.90
33067;DHT22;19428;49.024;8.366;2022-09-03T04:28:36;18.30;99.90
33067;DHT22;19428;49.024;8.366;2022-09-03T04:31:22;18.30;99.90
33067;DHT22;19428;49.024;8.366;2022-09-03T04:33:50;18.30;99.90
33067;DHT22;19428;49.024;8.366;2022-09-03T04:36:21;18.30;99.90
33067;DHT22;19428;49.024;8.366;2022-09-03T04:38:52;18.50;99.90
33067;DHT22;19428;49.024;8.366;2022-09-03T04:41:23;18.40;99.90
33067;DHT22;19428;49.024;8.366;2022-09-03T04:43:53;18.60;99.90
33067;DHT22;19428;49.024;8.366;2022-09-03T04:46:20;18.70;99.90
33067;DHT22;19428;49.024;8.366;2022-09-03T04:48:49;18.60;99.90
33067;DHT22;19428;49.024;8.366;2022-09-03T04:51:23;18.60;99.90
33067;DHT22;19428;49.024;8.366;2022-09-03T04:53:54;18.60;99.90
33067;DHT22;19428;49.024;8.366;2022-09-03T04:56:25;18.60;99.90
33067;DHT22;19428;49.024;8.366;2022-09-03T04:58:56;18.60;99.90
33067;DHT22;19428;49.024;8.366;2022-09-03T05:01:27;18.60;99.90
33067;DHT22;19428;49.024;8.366;2022-09-03T05:04:04;18.60;99.90
33067;DHT22;19428;49.024;8.366;2022-09-03T05:06:40;18.60;99.90
33067;DHT22;19428;49.024;8.366;2022-09-03T05:09:10;18.50;99.90
33067;DHT22;19428;49.024;8.366;2022-09-03T05:11:35;18.60;99.90
33067;DHT22;19428;49.024;8.366;2022-09-03T05:14:02;18.60;99.90
33067;DHT22;19428;49.024;8.366;2022-09-03T05:16:30;18.50;99.90
33067;DHT22;19428;49.024;8.366;2022-09-03T05:18:58;18.60;99.90
33067;DHT22;19428;49.024;8.366;2022-09-03T05:21:25;18.60;99.90
33067;DHT22;19428;49.024;8.366;2022-09-03T05:23:54;18.60;99.90
33067;DHT22;19428;49.024;8.366;2022-09-03T05:26:28;18.70;99.90
33067;DHT22;19428;49.024;8.366;2022-09-03T05:28:56;18.60;99.90
33067;DHT22;19428;49.024;8.366;2022-09-03T05:31:24;18.60;99.90
33067;DHT22;19428;49.024;8.366;2022-09-03T05:33:53;18.50;99.90
33067;DHT22;19428;49.024;8.366;2022-09-03T05:36:23;18.50;99.90
33067;DHT22;19428;49.024;8.366;2022-09-03T05:38:51;18.50;99.90
33067;DHT22;19428;49.024;8.366;2022-09-03T05:41:19;18.50;99.90
33067;DHT22;19428;49.024;8.366;2022-09-03T05:43:51;18.60;99.90
33067;DHT22;19428;49.024;8.366;2022-09-03T05:46:21;18.60;99.90
33067;DHT22;19428;49.024;8.366;2022-09-03T05:48:52;18.60;99.90
33067;DHT22;19428;49.024;8.366;2022-09-03T05:51:18;18.60;99.90
33067;DHT22;19428;49.024;8.366;2022-09-03T05:53:47;18.50;99.90
33067;DHT22;19428;49.024;8.366;2022-09-03T05:56:17;18.50;99.90
33067;DHT22;19428;49.024;8.366;2022-09-03T05:58:44;18.50;99.90
33067;DHT22;19428;49.024;8.366;2022-09-03T06:01:18;18.60;99.90
33067;DHT22;19428;49.024;8.366;2022-09-03T06:03:46;18.60;99.90
33067;DHT22;19428;49.024;8.366;2022-09-03T06:06:13;18.60;99.90
33067;DHT22;19428;49.024;8.366;2022-09-03T06:08:39;18.60;99.90
33067;DHT22;19428;49.024;8.366;2022-09-03T06:11:07;18.60;99.90
33067;DHT22;19428;49.024;8.366;2022-09-03T06:13:33;18.70;99.90
33067;DHT22;19428;49.024;8.366;2022-09-03T06:16:01;18.60;99.90
33067;DHT22;19428;49.024;8.366;2022-09-03T06:18:30;18.80;99.90
33067;DHT22;19428;49.024;8.366;2022-09-03T06:20:58;19.00;99.90
33067;DHT22;19428;49.024;8.366;2022-09-03T06:23:27;18.80;99.90
33067;DHT22;19428;49.024;8.366;2022-09-03T06:26:10;18.70;99.90
33067;DHT22;19428;49.024;8.366;2022-09-03T06:28:43;18.80;99.90
33067;DHT22;19428;49.024;8.366;2022-09-03T06:31:11;18.90;99.90
33067;DHT22;19428;49.024;8.366;2022-09-03T06:33:38;19.10;99.90
33067;DHT22;19428;49.024;8.366;2022-09-03T06:36:06;19.00;99.90
33067;DHT22;19428;49.024;8.366;2022-09-03T06:38:34;18.90;99.90
33067;DHT22;19428;49.024;8.366;2022-09-03T06:41:02;18.90;99.90
33067;DHT22;19428;49.024;8.366;2022-09-03T06:43:34;18.90;99.90
33067;DHT22;19428;49.024;8.366;2022-09-03T06:46:12;18.90;99.90
33067;DHT22;19428;49.024;8.366;2022-09-03T06:48:39;18.90;99.90
33067;DHT22;19428;49.024;8.366;2022-09-03T06:51:10;18.90;99.90
33067;DHT22;19428;49.024;8.366;2022-09-03T06:53:39;18.90;99.90
33067;DHT22;19428;49.024;8.366;2022-09-03T06:56:07;18.90;99.90
33067;DHT22;19428;49.024;8.366;2022-09-03T06:58:37;18.70;99.90
33067;DHT22;19428;49.024;8.366;2022-09-03T07:01:09;18.70;99.90
33067;DHT22;19428;49.024;8.366;2022-09-03T07:03:36;18.60;99.90
33067;DHT22;19428;49.024;8.366;2022-09-03T07:06:08;18.40;99.90
33067;DHT22;19428;49.024;8.366;2022-09-03T07:08:34;18.30;99.90
33067;DHT22;19428;49.024;8.366;2022-09-03T07:11:01;18.20;99.90
33067;DHT22;19428;49.024;8.366;2022-09-03T07:13:36;18.00;99.90
33067;DHT22;19428;49.024;8.366;2022-09-03T07:16:07;17.70;99.90
33067;DHT22;19428;49.024;8.366;2022-09-03T07:18:34;17.60;99.90
33067;DHT22;19428;49.024;8.366;2022-09-03T07:21:02;17.50;99.90
33067;DHT22;19428;49.024;8.366;2022-09-03T07:23:28;17.40;99.90
33067;DHT22;19428;49.024;8.366;2022-09-03T07:25:55;17.40;99.90
33067;DHT22;19428;49.024;8.366;2022-09-03T07:28:21;17.40;99.90
33067;DHT22;19428;49.024;8.366;2022-09-03T07:30:50;17.40;99.90
33067;DHT22;19428;49.024;8.366;2022-09-03T07:33:16;17.60;99.90
33067;DHT22;19428;49.024;8.366;2022-09-03T07:35:44;17.50;99.90
33067;DHT22;19428;49.024;8.366;2022-09-03T07:38:09;17.60;99.90
33067;DHT22;19428;49.024;8.366;2022-09-03T07:40:36;17.50;99.90
33067;DHT22;19428;49.024;8.366;2022-09-03T07:43:04;17.50;99.90
33067;DHT22;19428;49.024;8.366;2022-09-03T07:45:30;17.50;99.90
33067;DHT22;19428;49.024;8.366;2022-09-03T07:47:58;17.40;99.90
33067;DHT22;19428;49.024;8.366;2022-09-03T07:50:24;17.30;99.90
33067;DHT22;19428;49.024;8.366;2022-09-03T07:52:55;17.30;99.90
33067;DHT22;19428;49.024;8.366;2022-09-03T07:55:22;17.20;99.90
33067;DHT22;19428;49.024;8.366;2022-09-03T07:57:48;17.30;99.90
33067;DHT22;19428;49.024;8.366;2022-09-03T08:00:14;17.20;99.90
33067;DHT22;19428;49.024;8.366;2022-09-03T08:02:39;17.20;99.90
33067;DHT22;19428;49.024;8.366;2022-09-03T08:05:05;17.10;99.90
33067;DHT22;19428;49.024;8.366;2022-09-03T08:07:31;17.30;99.90
33067;DHT22;19428;49.024;8.366;2022-09-03T08:09:57;17.30;99.90
33067;DHT22;19428;49.024;8.366;2022-09-03T08:12:22;17.30;99.90
33067;DHT22;19428;49.024;8.366;2022-09-03T08:14:48;17.50;99.90
33067;DHT22;19428;49.024;8.366;2022-09-03T08:17:14;17.50;99.90
33067;DHT22;19428;49.024;8.366;2022-09-03T08:19:39;17.60;99.90
33067;DHT22;19428;49.024;8.366;2022-09-03T08:22:06;17.60;99.90
33067;DHT22;19428;49.024;8.366;2022-09-03T08:24:32;17.40;99.90
33067;DHT22;19428;49.024;8.366;2022-09-03T08:26:59;17.40;99.90
33067;DHT22;19428;49.024;8.366;2022-09-03T08:29:25;17.40;99.90
33067;DHT22;19428;49.024;8.366;2022-09-03T08:31:51;17.50;99.90
33067;DHT22;19428;49.024;8.366;2022-09-03T08:34:17;17.60;99.90
33067;DHT22;19428;49.024;8.366;2022-09-03T08:36:42;17.80;99.90
33067;DHT22;19428;49.024;8.366;2022-09-03T08:39:09;18.00;99.90
33067;DHT22;19428;49.024;8.366;2022-09-03T08:44:24;18.50;99.90
33067;DHT22;19428;49.024;8.366;2022-09-03T08:46:59;18.30;99.90
33067;DHT22;19428;49.024;8.366;2022-09-03T08:49:53;18.50;99.90
33067;DHT22;19428;49.024;8.366;2022-09-03T08:58:14;19.20;99.90
33067;DHT22;19428;49.024;8.366;2022-09-03T09:03:56;19.30;99.90
33067;DHT22;19428;49.024;8.366;2022-09-03T09:06:37;19.30;99.90
33067;DHT22;19428;49.024;8.366;2022-09-03T09:15:09;19.30;99.90
33067;DHT22;19428;49.024;8.366;2022-09-03T09:23:29;19.10;99.90
33067;DHT22;19428;49.024;8.366;2022-09-03T09:25:56;19.10;99.90
33067;DHT22;19428;49.024;8.366;2022-09-03T09:28:29;18.90;99.90
33067;DHT22;19428;49.024;8.366;2022-09-03T09:31:00;18.90;99.90
33067;DHT22;19428;49.024;8.366;2022-09-03T09:33:29;19.00;99.90
33067;DHT22;19428;49.024;8.366;2022-09-03T09:35:58;19.10;99.90
33067;DHT22;19428;49.024;8.366;2022-09-03T09:38:31;19.10;99.90
33067;DHT22;19428;49.024;8.366;2022-09-03T09:41:11;19.30;99.90
33067;DHT22;19428;49.024;8.366;2022-09-03T09:43:37;19.30;99.90
33067;DHT22;19428;49.024;8.366;2022-09-03T09:46:20;19.50;99.90
33067;DHT22;19428;49.024;8.366;2022-09-03T09:48:50;19.50;99.90
33067;DHT22;19428;49.024;8.366;2022-09-03T09:51:22;19.50;99.90
33067;DHT22;19428;49.024;8.366;2022-09-03T09:54:02;19.90;99.90
33067;DHT22;19428;49.024;8.366;2022-09-03T09:56:29;20.20;99.90
33067;DHT22;19428;49.024;8.366;2022-09-03T09:59:20;20.40;99.90
33067;DHT22;19428;49.024;8.366;2022-09-03T10:01:46;20.20;99.90
33067;DHT22;19428;49.024;8.366;2022-09-03T10:04:23;20.10;99.90
33067;DHT22;19428;49.024;8.366;2022-09-03T10:06:59;20.60;99.90
33067;DHT22;19428;49.024;8.366;2022-09-03T10:09:28;20.30;99.90
33067;DHT22;19428;49.024;8.366;2022-09-03T10:12:13;20.50;99.90
33067;DHT22;19428;49.024;8.366;2022-09-03T10:14:54;20.50;99.90
33067;DHT22;19428;49.024;8.366;2022-09-03T10:17:41;20.10;99.90
33067;DHT22;19428;49.024;8.366;2022-09-03T10:23:16;20.40;99.90
33067;DHT22;19428;49.024;8.366;2022-09-03T10:25:47;20.90;99.90
33067;DHT22;19428;49.024;8.366;2022-09-03T10:28:20;20.70;99.90
33067;DHT22;19428;49.024;8.366;2022-09-03T10:31:02;21.00;99.90
33067;DHT22;19428;49.024;8.366;2022-09-03T10:33:37;21.30;99.90
33067;DHT22;19428;49.024;8.366;2022-09-03T10:36:16;21.40;99.90
33067;DHT22;19428;49.024;8.366;2022-09-03T10:38:46;21.20;99.90
33067;DHT22;19428;49.024;8.366;2022-09-03T10:41:18;21.40;99.90
33067;DHT22;19428;49.024;8.366;2022-09-03T10:44:11;21.70;99.90
33067;DHT22;19428;49.024;8.366;2022-09-03T10:49:43;21.40;99.90
33067;DHT22;19428;49.024;8.366;2022-09-03T10:55:04;21.30;99.90
33067;DHT22;19428;49.024;8.366;2022-09-03T10:57:54;21.00;99.90
33067;DHT22;19428;49.024;8.366;2022-09-03T11:00:23;20.90;99.90
33067;DHT22;19428;49.024;8.366;2022-09-03T11:08:31;20.80;99.90
33067;DHT22;19428;49.024;8.366;2022-09-03T11:11:26;20.60;99.90
33067;DHT22;19428;49.024;8.366;2022-09-03T11:14:01;20.20;99.90
33067;DHT22;19428;49.024;8.366;2022-09-03T11:16:37;20.00;99.90
33067;DHT22;19428;49.024;8.366;2022-09-03T11:19:07;20.10;99.90
33067;DHT22;19428;49.024;8.366;2022-09-03T11:21:37;20.20;99.90
33067;DHT22;19428;49.024;8.366;2022-09-03T11:24:13;20.00;99.90
33067;DHT22;19428;49.024;8.366;2022-09-03T11:26:43;20.00;99.90
33067;DHT22;19428;49.024;8.366;2022-09-03T11:32:01;20.20;99.90
33067;DHT22;19428;49.024;8.366;2022-09-03T11:34:44;20.20;99.90
33067;DHT22;19428;49.024;8.366;2022-09-03T11:37:23;20.30;99.90
33067;DHT22;19428;49.024;8.366;2022-09-03T11:40:10;20.60;99.90
33067;DHT22;19428;49.024;8.366;2022-09-03T11:42:44;20.60;99.90
33067;DHT22;19428;49.024;8.366;2022-09-03T11:47:52;21.70;99.90
33067;DHT22;19428;49.024;8.366;2022-09-03T11:50:20;21.30;99.90
33067;DHT22;19428;49.024;8.366;2022-09-03T11:52:47;21.80;99.90
33067;DHT22;19428;49.024;8.366;2022-09-03T11:55:48;21.80;99.90
33067;DHT22;19428;49.024;8.366;2022-09-03T11:58:28;21.80;99.90
33067;DHT22;19428;49.024;8.366;2022-09-03T12:00:55;22.10;99.90
33067;DHT22;19428;49.024;8.366;2022-09-03T12:03:28;22.10;99.90
33067;DHT22;19428;49.024;8.366;2022-09-03T12:14:28;21.80;99.90
33067;DHT22;19428;49.024;8.366;2022-09-03T12:19:53;21.90;99.90
33067;DHT22;19428;49.024;8.366;2022-09-03T12:22:21;22.00;99.90
33067;DHT22;19428;49.024;8.366;2022-09-03T12:24:47;22.80;99.90
33067;DHT22;19428;49.024;8.366;2022-09-03T12:27:22;23.10;99.90
33067;DHT22;19428;49.024;8.366;2022-09-03T12:29:49;23.80;99.90
33067;DHT22;19428;49.024;8.366;2022-09-03T12:32:22;23.80;99.90
33067;DHT22;19428;49.024;8.366;2022-09-03T12:34:48;23.90;99.90
33067;DHT22;19428;49.024;8.366;2022-09-03T12:37:24;24.40;99.90
33067;DHT22;19428;49.024;8.366;2022-09-03T12:39:52;23.90;99.90
33067;DHT22;19428;49.024;8.366;2022-09-03T12:44:49;22.60;99.90
33067;DHT22;19428;49.024;8.366;2022-09-03T12:47:17;21.50;99.90
33067;DHT22;19428;49.024;8.366;2022-09-03T12:49:45;21.60;99.90
33067;DHT22;19428;49.024;8.366;2022-09-03T12:54:56;21.60;99.90
33067;DHT22;19428;49.024;8.366;2022-09-03T12:57:40;21.50;99.90
33067;DHT22;19428;49.024;8.366;2022-09-03T13:00:09;21.50;99.90
33067;DHT22;19428;49.024;8.366;2022-09-03T13:02:52;21.40;99.90
33067;DHT22;19428;49.024;8.366;2022-09-03T13:05:24;21.70;99.90
33067;DHT22;19428;49.024;8.366;2022-09-03T13:07:58;21.30;99.90
33067;DHT22;19428;49.024;8.366;2022-09-03T13:10:37;21.30;99.90
33067;DHT22;19428;49.024;8.366;2022-09-03T13:13:21;21.20;99.90
33067;DHT22;19428;49.024;8.366;2022-09-03T13:27:41;23.60;99.90
33067;DHT22;19428;49.024;8.366;2022-09-03T13:30:22;23.90;99.90
33067;DHT22;19428;49.024;8.366;2022-09-03T13:33:06;24.00;99.90
33067;DHT22;19428;49.024;8.366;2022-09-03T13:35:48;24.90;99.90
33067;DHT22;19428;49.024;8.366;2022-09-03T13:41:15;24.40;99.90
33067;DHT22;19428;49.024;8.366;2022-09-03T13:43:54;25.00;99.90
33067;DHT22;19428;49.024;8.366;2022-09-03T13:46:31;25.40;99.90
33067;DHT22;19428;49.024;8.366;2022-09-03T13:49:16;25.30;99.90
33067;DHT22;19428;49.024;8.366;2022-09-03T13:52:04;25.10;99.90
33067;DHT22;19428;49.024;8.366;2022-09-03T13:54:42;25.10;99.90
33067;DHT22;19428;49.024;8.366;2022-09-03T13:57:25;25.00;99.90
33067;DHT22;19428;49.024;8.366;2022-09-03T14:00:06;25.10;99.90
33067;DHT22;19428;49.024;8.366;2022-09-03T14:03:06;25.20;99.90
33067;DHT22;19428;49.024;8.366;2022-09-03T14:19:05;25.30;99.90
33067;DHT22;19428;49.024;8.366;2022-09-03T14:21:49;25.40;99.90
33067;DHT22;19428;49.024;8.366;2022-09-03T14:24:25;25.10;99.90
33067;DHT22;19428;49.024;8.366;2022-09-03T14:26:55;25.00;99.90
33067;DHT22;19428;49.024;8.366;2022-09-03T14:29:28;24.70;99.90
33067;DHT22;19428;49.024;8.366;2022-09-03T14:32:01;24.70;99.90
33067;DHT22;19428;49.024;8.366;2022-09-03T14:48:59;23.80;99.90
33067;DHT22;19428;49.024;8.366;2022-09-03T14:54:34;23.10;99.90
33067;DHT22;19428;49.024;8.366;2022-09-03T14:59:58;22.60;99.90
33067;DHT22;19428;49.024;8.366;2022-09-03T15:08:07;22.70;99.90
33067;DHT22;19428;49.024;8.366;2022-09-03T15:10:51;22.80;99.90
33067;DHT22;19428;49.024;8.366;2022-09-03T15:14:08;22.70;99.90
33067;DHT22;19428;49.024;8.366;2022-09-03T15:16:30;22.40;99.90
33067;DHT22;19428;49.024;8.366;2022-09-03T15:19:15;22.30;99.90
33067;DHT22;19428;49.024;8.366;2022-09-03T15:27:38;21.90;99.90
33067;DHT22;19428;49.024;8.366;2022-09-03T15:30:10;21.80;99.90
33067;DHT22;19428;49.024;8.366;2022-09-03T15:32:50;21.70;99.90
33067;DHT22;19428;49.024;8.366;2022-09-03T15:35:52;21.40;99.90
33067;DHT22;19428;49.024;8.366;2022-09-03T15:44:15;21.50;99.90
33067;DHT22;19428;49.024;8.366;2022-09-03T15:47:04;21.50;99.90
33067;DHT22;19428;49.024;8.366;2022-09-03T15:55:10;21.40;99.90
33067;DHT22;19428;49.024;8.366;2022-09-03T15:58:05;21.40;99.90
33067;DHT22;19428;49.024;8.366;2022-09-03T16:03:14;21.50;99.90
33067;DHT22;19428;49.024;8.366;2022-09-03T16:06:04;21.50;99.90
33067;DHT22;19428;49.024;8.366;2022-09-03T16:08:58;21.40;99.90
33067;DHT22;19428;49.024;8.366;2022-09-03T16:11:40;21.50;99.90
33067;DHT22;19428;49.024;8.366;2022-09-03T16:25:14;22.00;99.90
33067;DHT22;19428;49.024;8.366;2022-09-03T16:33:49;21.90;99.90
33067;DHT22;19428;49.024;8.366;2022-09-03T16:41:56;21.80;99.90
33067;DHT22;19428;49.024;8.366;2022-09-03T16:50:22;21.80;99.90
33067;DHT22;19428;49.024;8.366;2022-09-03T17:12:27;21.50;99.90
33067;DHT22;19428;49.024;8.366;2022-09-03T17:17:56;21.60;99.90
33067;DHT22;19428;49.024;8.366;2022-09-03T17:20:44;21.50;99.90
33067;DHT22;19428;49.024;8.366;2022-09-03T17:23:32;21.50;99.90
33067;DHT22;19428;49.024;8.366;2022-09-03T17:26:10;21.50;99.90
33067;DHT22;19428;49.024;8.366;2022-09-03T17:31:45;21.50;99.90
33067;DHT22;19428;49.024;8.366;2022-09-03T17:37:28;21.40;99.90
33067;DHT22;19428;49.024;8.366;2022-09-03T17:39:59;21.40;99.90
33067;DHT22;19428;49.024;8.366;2022-09-03T17:45:19;21.20;99.90
33067;DHT22;19428;49.024;8.366;2022-09-03T17:50:48;21.20;99.90
33067;DHT22;19428;49.024;8.366;2022-09-03T17:53:22;21.10;99.90
33067;DHT22;19428;49.024;8.366;2022-09-03T17:56:19;20.80;99.90
33067;DHT22;19428;49.024;8.366;2022-09-03T17:58:54;20.40;99.90
33067;DHT22;19428;49.024;8.366;2022-09-03T18:01:27;20.20;99.90
33067;DHT22;19428;49.024;8.366;2022-09-03T18:03:59;20.00;99.90
33067;DHT22;19428;49.024;8.366;2022-09-03T18:06:58;19.90;99.90
33067;DHT22;19428;49.024;8.366;2022-09-03T18:09:40;19.80;99.90
33067;DHT22;19428;49.024;8.366;2022-09-03T18:14:58;19.50;99.90
33067;DHT22;19428;49.024;8.366;2022-09-03T18:17:50;19.50;99.90
33067;DHT22;19428;49.024;8.366;2022-09-03T18:20:18;19.40;99.90
33067;DHT22;19428;49.024;8.366;2022-09-03T18:24:06;19.40;99.90
33067;DHT22;19428;49.024;8.366;2022-09-03T18:26:25;19.30;99.90
33067;DHT22;19428;49.024;8.366;2022-09-03T18:29:28;19.10;99.90
33067;DHT22;19428;49.024;8.366;2022-09-03T18:32:14;19.00;99.90
33067;DHT22;19428;49.024;8.366;2022-09-03T18:34:58;18.80;99.90
33067;DHT22;19428;49.024;8.366;2022-09-03T18:37:42;18.80;99.90
33067;DHT22;19428;49.024;8.366;2022-09-03T18:40:35;18.70;99.90
33067;DHT22;19428;49.024;8.366;2022-09-03T18:43:43;18.60;99.90
33067;DHT22;19428;49.024;8.366;2022-09-03T18:46:34;18.60;99.90
33067;DHT22;19428;49.024;8.366;2022-09-03T18:49:38;18.60;99.90
33067;DHT22;19428;49.024;8.366;2022-09-03T18:52:36;18.60;99.90
33067;DHT22;19428;49.024;8.366;2022-09-03T19:01:38;18.50;99.90
33067;DHT22;19428;49.024;8.366;2022-09-03T19:10:47;18.50;99.90
33067;DHT22;19428;49.024;8.366;2022-09-03T19:13:35;18.50;99.90
33067;DHT22;19428;49.024;8.366;2022-09-03T19:16:25;18.30;99.90
33067;DHT22;19428;49.024;8.366;2022-09-03T19:22:12;18.30;99.90
33067;DHT22;19428;49.024;8.366;2022-09-03T19:25:10;18.20;99.90
33067;DHT22;19428;49.024;8.366;2022-09-03T19:28:23;18.20;99.90
33067;DHT22;19428;49.024;8.366;2022-09-03T19:38:10;18.10;99.90
33067;DHT22;19428;49.024;8.366;2022-09-03T19:44:30;18.10;99.90
33067;DHT22;19428;49.024;8.366;2022-09-03T19:47:06;17.80;99.90
33067;DHT22;19428;49.024;8.366;2022-09-03T19:52:59;17.80;99.90
33067;DHT22;19428;49.024;8.366;2022-09-03T19:55:47;18.00;99.90
33067;DHT22;19428;49.024;8.366;2022-09-03T19:58:34;18.00;99.90
33067;DHT22;19428;49.024;8.366;2022-09-03T20:01:20;17.80;99.90
33067;DHT22;19428;49.024;8.366;2022-09-03T20:04:14;17.80;99.90
33067;DHT22;19428;49.024;8.366;2022-09-03T20:07:00;17.60;99.90
33067;DHT22;19428;49.024;8.366;2022-09-03T20:09:46;17.80;99.90
33067;DHT22;19428;49.024;8.366;2022-09-03T20:12:33;17.80;99.90
33067;DHT22;19428;49.024;8.366;2022-09-03T20:15:05;17.70;99.90
33067;DHT22;19428;49.024;8.366;2022-09-03T20:25:33;17.50;99.90
33067;DHT22;19428;49.024;8.366;2022-09-03T20:28:20;17.40;99.90
33067;DHT22;19428;49.024;8.366;2022-09-03T20:34:33;17.50;99.90
33067;DHT22;19428;49.024;8.366;2022-09-03T20:36:42;17.60;99.90
33067;DHT22;19428;49.024;8.366;2022-09-03T20:45:03;17.40;99.90
33067;DHT22;19428;49.024;8.366;2022-09-03T20:53:06;17.40;99.90
33067;DHT22;19428;49.024;8.366;2022-09-03T20:55:42;17.40;99.90
33067;DHT22;19428;49.024;8.366;2022-09-03T20:58:11;17.40;99.90
33067;DHT22;19428;49.024;8.366;2022-09-03T21:03:23;17.00;99.90
33067;DHT22;19428;49.024;8.366;2022-09-03T21:05:58;17.00;99.90
33067;DHT22;19428;49.024;8.366;2022-09-03T21:08:55;17.00;99.90
33067;DHT22;19428;49.024;8.366;2022-09-03T21:12:02;17.00;99.90
33067;DHT22;19428;49.024;8.366;2022-09-03T21:14:50;16.90;99.90
33067;DHT22;19428;49.024;8.366;2022-09-03T21:17:30;16.90;99.90
33067;DHT22;19428;49.024;8.366;2022-09-03T21:25:39;16.80;99.90
33067;DHT22;19428;49.024;8.366;2022-09-03T21:28:21;16.70;99.90